sensor_id;sensor_type;location;lat;lon;timestamp;temperature;humidity
46898;DHT22;32646;50.958;6.258;2023-05-17T00:00:33;8.30;99.90
46898;DHT22;32646;50.958;6.258;2023-05-17T00:03:00;8.20;99.90
46898;DHT22;32646;50.958;6.258;2023-05-17T00:05:26;8.00;99.90
46898;DHT22;32646;50.958;6.258;2023-05-17T00:07:53;7.90;99.90
46898;DHT22;32646;50.958;6.258;2023-05-17T00:10:20;8.00;99.90
46898;DHT22;32646;50.958;6.258;2023-05-17T00:12:46;7.90;99.90
46898;DHT22;32646;50.958;6.258;2023-05-17T00:15:13;7.80;99.90
46898;DHT22;32646;50.958;6.258;2023-05-17T00:17:40;7.80;99.90
46898;DHT22;32646;50.958;6.258;2023-05-17T00:20:07;7.70;99.90
46898;DHT22;32646;50.958;6.258;2023-05-17T00:22:33;7.70;99.90
46898;DHT22;32646;50.958;6.258;2023-05-17T00:25:00;7.60;99.90
46898;DHT22;32646;50.958;6.258;2023-05-17T00:27:27;7.50;99.90
46898;DHT22;32646;50.958;6.258;2023-05-17T00:29:53;7.50;99.90
46898;DHT22;32646;50.958;6.258;2023-05-17T00:32:20;7.40;99.90
46898;DHT22;32646;50.958;6.258;2023-05-17T00:34:46;7.40;99.90
46898;DHT22;32646;50.958;6.258;2023-05-17T00:37:13;7.30;99.90
46898;DHT22;32646;50.958;6.258;2023-05-17T00:39:39;7.20;99.90
46898;DHT22;32646;50.958;6.258;2023-05-17T00:42:06;7.20;99.90
46898;DHT22;32646;50.958;6.258;2023-05-17T00:44:33;7.20;99.90
46898;DHT22;32646;50.958;6.258;2023-05-17T00:46:59;7.20;99.90
46898;DHT22;32646;50.958;6.258;2023-05-17T00:49:26;7.30;99.90
46898;DHT22;32646;50.958;6.258;2023-05-17T00:51:53;7.50;99.90
46898;DHT22;32646;50.958;6.258;2023-05-17T00:54:21;7.60;99.90
46898;DHT22;32646;50.958;6.258;2023-05-17T00:56:48;7.40;99.90
46898;DHT22;32646;50.958;6.258;2023-05-17T00:59:16;7.30;99.90
46898;DHT22;32646;50.958;6.258;2023-05-17T01:01:44;7.30;99.90
46898;DHT22;32646;50.958;6.258;2023-05-17T01:04:10;7.20;99.90
46898;DHT22;32646;50.958;6.258;2023-05-17T01:06:37;7.10;99.90
46898;DHT22;32646;50.958;6.258;2023-05-17T01:09:04;7.00;99.90
46898;DHT22;32646;50.958;6.258;2023-05-17T01:17:06;6.90;99.90
46898;DHT22;32646;50.958;6.258;2023-05-17T01:19:59;6.90;99.90
46898;DHT22;32646;50.958;6.258;2023-05-17T01:22:50;7.00;99.90
46898;DHT22;32646;50.958;6.258;2023-05-17T01:27:58;7.00;99.90
46898;DHT22;32646;50.958;6.258;2023-05-17T01:30:25;6.90;99.90
46898;DHT22;32646;50.958;6.258;2023-05-17T01:32:54;6.90;99.90
46898;DHT22;32646;50.958;6.258;2023-05-17T01:35:21;6.80;99.90
46898;DHT22;32646;50.958;6.258;2023-05-17T01:37:48;6.80;99.90
46898;DHT22;32646;50.958;6.258;2023-05-17T01:40:16;6.70;99.90
46898;DHT22;32646;50.958;6.258;2023-05-17T01:42:44;6.70;99.90
46898;DHT22;32646;50.958;6.258;2023-05-17T01:48:14;6.40;99.90
46898;DHT22;32646;50.958;6.258;2023-05-17T01:50:41;6.40;99.90
46898;DHT22;32646;50.958;6.258;2023-05-17T01:53:19;6.50;99.90
46898;DHT22;32646;50.958;6.258;2023-05-17T01:55:51;6.40;99.90
46898;DHT22;32646;50.958;6.258;2023-05-17T01:58:20;6.40;99.90
46898;DHT22;32646;50.958;6.258;2023-05-17T02:00:48;6.50;99.90
46898;DHT22;32646;50.958;6.258;2023-05-17T02:03:17;6.40;99.90
46898;DHT22;32646;50.958;6.258;2023-05-17T02:05:44;6.40;99.90
46898;DHT22;32646;50.958;6.258;2023-05-17T02:08:11;6.50;99.90
46898;DHT22;32646;50.958;6.258;2023-05-17T02:10:38;6.60;99.90
46898;DHT22;32646;50.958;6.258;2023-05-17T02:13:05;6.50;99.90
46898;DHT22;32646;50.958;6.258;2023-05-17T02:15:31;6.50;99.90
46898;DHT22;32646;50.958;6.258;2023-05-17T02:17:58;6.60;99.90
46898;DHT22;32646;50.958;6.258;2023-05-17T02:20:25;6.60;99.90
46898;DHT22;32646;50.958;6.258;2023-05-17T02:22:52;6.50;99.90
46898;DHT22;32646;50.958;6.258;2023-05-17T02:25:18;6.50;99.90
46898;DHT22;32646;50.958;6.258;2023-05-17T02:27:45;6.60;99.90
46898;DHT22;32646;50.958;6.258;2023-05-17T02:30:11;6.60;99.90
46898;DHT22;32646;50.958;6.258;2023-05-17T02:32:40;6.50;99.90
46898;DHT22;32646;50.958;6.258;2023-05-17T02:35:07;6.50;99.90
46898;DHT22;32646;50.958;6.258;2023-05-17T02:37:34;6.30;99.90
46898;DHT22;32646;50.958;6.258;2023-05-17T02:40:00;6.30;99.90
46898;DHT22;32646;50.958;6.258;2023-05-17T02:42:27;6.30;99.90
46898;DHT22;32646;50.958;6.258;2023-05-17T02:44:54;6.30;99.90
46898;DHT22;32646;50.958;6.258;2023-05-17T02:47:20;6.30;99.90
46898;DHT22;32646;50.958;6.258;2023-05-17T02:49:47;6.30;99.90
46898;DHT22;32646;50.958;6.258;2023-05-17T02:52:14;6.40;99.90
46898;DHT22;32646;50.958;6.258;2023-05-17T02:54:41;6.30;99.90
46898;DHT22;32646;50.958;6.258;2023-05-17T02:57:08;6.20;99.90
46898;DHT22;32646;50.958;6.258;2023-05-17T02:59:35;6.00;99.90
46898;DHT22;32646;50.958;6.258;2023-05-17T03:02:01;5.90;99.90
46898;DHT22;32646;50.958;6.258;2023-05-17T03:04:28;5.80;99.90
46898;DHT22;32646;50.958;6.258;2023-05-17T03:06:55;5.80;99.90
46898;DHT22;32646;50.958;6.258;2023-05-17T03:09:21;5.70;99.90
46898;DHT22;32646;50.958;6.258;2023-05-17T03:11:48;5.90;99.90
46898;DHT22;32646;50.958;6.258;2023-05-17T03:14:14;5.80;99.90
46898;DHT22;32646;50.958;6.258;2023-05-17T03:16:41;6.00;99.90
46898;DHT22;32646;50.958;6.258;2023-05-17T03:19:07;5.90;99.90
46898;DHT22;32646;50.958;6.258;2023-05-17T03:21:34;5.90;99.90
46898;DHT22;32646;50.958;6.258;2023-05-17T03:24:01;5.90;99.90
46898;DHT22;32646;50.958;6.258;2023-05-17T03:26:27;5.90;99.90
46898;DHT22;32646;50.958;6.258;2023-05-17T03:28:54;6.00;99.90
46898;DHT22;32646;50.958;6.258;2023-05-17T03:31:21;5.90;99.90
46898;DHT22;32646;50.958;6.258;2023-05-17T03:33:47;5.90;99.90
46898;DHT22;32646;50.958;6.258;2023-05-17T03:36:14;5.80;99.90
46898;DHT22;32646;50.958;6.258;2023-05-17T03:38:41;5.70;99.90
46898;DHT22;32646;50.958;6.258;2023-05-17T03:41:07;5.60;99.90
46898;DHT22;32646;50.958;6.258;2023-05-17T03:43:34;5.50;99.90
46898;DHT22;32646;50.958;6.258;2023-05-17T03:46:00;5.50;99.90
46898;DHT22;32646;50.958;6.258;2023-05-17T03:48:27;5.50;99.90
46898;DHT22;32646;50.958;6.258;2023-05-17T03:50:54;5.50;99.90
46898;DHT22;32646;50.958;6.258;2023-05-17T03:53:20;5.40;99.90
46898;DHT22;32646;50.958;6.258;2023-05-17T03:55:47;5.40;99.90
46898;DHT22;32646;50.958;6.258;2023-05-17T03:58:14;5.40;99.90
46898;DHT22;32646;50.958;6.258;2023-05-17T04:00:40;5.40;99.90
46898;DHT22;32646;50.958;6.258;2023-05-17T04:03:07;5.40;99.90
46898;DHT22;32646;50.958;6.258;2023-05-17T04:05:33;5.40;99.90
46898;DHT22;32646;50.958;6.258;2023-05-17T04:08:00;5.40;99.90
46898;DHT22;32646;50.958;6.258;2023-05-17T04:10:27;5.40;99.90
46898;DHT22;32646;50.958;6.258;2023-05-17T04:12:53;5.50;99.90
46898;DHT22;32646;50.958;6.258;2023-05-17T04:15:20;5.50;99.90
46898;DHT22;32646;50.958;6.258;2023-05-17T04:17:47;5.50;99.90
46898;DHT22;32646;50.958;6.258;2023-05-17T04:20:14;5.70;99.90
46898;DHT22;32646;50.958;6.258;2023-05-17T04:22:41;5.70;99.90
46898;DHT22;32646;50.958;6.258;2023-05-17T04:25:07;5.90;99.90
46898;DHT22;32646;50.958;6.258;2023-05-17T04:27:34;5.90;99.90
46898;DHT22;32646;50.958;6.258;2023-05-17T04:30:01;5.90;99.90
46898;DHT22;32646;50.958;6.258;2023-05-17T04:32:28;6.00;99.90
46898;DHT22;32646;50.958;6.258;2023-05-17T04:34:54;6.10;99.90
46898;DHT22;32646;50.958;6.258;2023-05-17T04:37:21;6.20;99.90
46898;DHT22;32646;50.958;6.258;2023-05-17T04:39:47;6.30;99.90
46898;DHT22;32646;50.958;6.258;2023-05-17T04:42:14;6.30;99.90
46898;DHT22;32646;50.958;6.258;2023-05-17T04:44:41;6.30;99.90
46898;DHT22;32646;50.958;6.258;2023-05-17T04:47:07;6.40;99.90
46898;DHT22;32646;50.958;6.258;2023-05-17T04:49:34;6.40;99.90
46898;DHT22;32646;50.958;6.258;2023-05-17T04:52:01;6.50;99.90
46898;DHT22;32646;50.958;6.258;2023-05-17T04:54:30;6.60;99.90
46898;DHT22;32646;50.958;6.258;2023-05-17T04:56:57;6.90;99.90
46898;DHT22;32646;50.958;6.258;2023-05-17T04:59:24;7.00;99.90
46898;DHT22;32646;50.958;6.258;2023-05-17T05:01:50;7.20;99.90
46898;DHT22;32646;50.958;6.258;2023-05-17T05:04:17;7.40;99.90
46898;DHT22;32646;50.958;6.258;2023-05-17T05:06:43;7.50;99.90
46898;DHT22;32646;50.958;6.258;2023-05-17T05:09:10;7.70;99.90
46898;DHT22;32646;50.958;6.258;2023-05-17T05:11:37;7.70;99.90
46898;DHT22;32646;50.958;6.258;2023-05-17T05:14:03;7.70;99.90
46898;DHT22;32646;50.958;6.258;2023-05-17T05:16:30;7.80;99.90
46898;DHT22;32646;50.958;6.258;2023-05-17T05:18:56;8.00;99.90
46898;DHT22;32646;50.958;6.258;2023-05-17T05:21:23;8.00;99.90
46898;DHT22;32646;50.958;6.258;2023-05-17T05:23:50;8.10;99.90
46898;DHT22;32646;50.958;6.258;2023-05-17T05:26:17;8.30;99.90
46898;DHT22;32646;50.958;6.258;2023-05-17T05:28:43;8.30;99.90
46898;DHT22;32646;50.958;6.258;2023-05-17T05:31:10;8.40;99.90
46898;DHT22;32646;50.958;6.258;2023-05-17T05:33:36;8.50;99.90
46898;DHT22;32646;50.958;6.258;2023-05-17T05:36:03;8.60;99.90
46898;DHT22;32646;50.958;6.258;2023-05-17T05:38:30;8.70;99.90
46898;DHT22;32646;50.958;6.258;2023-05-17T05:40:57;8.80;99.90
46898;DHT22;32646;50.958;6.258;2023-05-17T05:43:23;8.70;99.90
46898;DHT22;32646;50.958;6.258;2023-05-17T05:45:50;8.60;99.90
46898;DHT22;32646;50.958;6.258;2023-05-17T05:48:16;8.70;99.90
46898;DHT22;32646;50.958;6.258;2023-05-17T05:50:43;8.70;99.90
46898;DHT22;32646;50.958;6.258;2023-05-17T05:53:10;8.70;99.90
46898;DHT22;32646;50.958;6.258;2023-05-17T05:55:44;8.80;99.90
46898;DHT22;32646;50.958;6.258;2023-05-17T05:58:11;8.80;99.90
46898;DHT22;32646;50.958;6.258;2023-05-17T06:00:37;9.00;99.90
46898;DHT22;32646;50.958;6.258;2023-05-17T06:03:04;9.00;99.90
46898;DHT22;32646;50.958;6.258;2023-05-17T06:05:31;9.20;99.90
46898;DHT22;32646;50.958;6.258;2023-05-17T06:07:58;9.40;99.90
46898;DHT22;32646;50.958;6.258;2023-05-17T06:10:24;9.60;99.90
46898;DHT22;32646;50.958;6.258;2023-05-17T06:12:51;9.70;99.90
46898;DHT22;32646;50.958;6.258;2023-05-17T06:15:17;9.60;99.90
46898;DHT22;32646;50.958;6.258;2023-05-17T06:17:44;9.60;99.90
46898;DHT22;32646;50.958;6.258;2023-05-17T06:20:11;9.80;99.90
46898;DHT22;32646;50.958;6.258;2023-05-17T06:22:37;10.00;99.90
46898;DHT22;32646;50.958;6.258;2023-05-17T06:25:04;10.50;99.90
46898;DHT22;32646;50.958;6.258;2023-05-17T06:27:31;10.50;99.90
46898;DHT22;32646;50.958;6.258;2023-05-17T06:29:58;10.60;99.90
46898;DHT22;32646;50.958;6.258;2023-05-17T06:32:25;10.50;99.90
46898;DHT22;32646;50.958;6.258;2023-05-17T06:34:51;10.70;99.90
46898;DHT22;32646;50.958;6.258;2023-05-17T06:37:18;10.80;99.90
46898;DHT22;32646;50.958;6.258;2023-05-17T06:39:44;10.80;99.90
46898;DHT22;32646;50.958;6.258;2023-05-17T06:42:25;10.80;99.90
46898;DHT22;32646;50.958;6.258;2023-05-17T06:44:52;11.00;99.90
46898;DHT22;32646;50.958;6.258;2023-05-17T06:47:18;11.10;99.90
46898;DHT22;32646;50.958;6.258;2023-05-17T06:49:45;11.10;99.90
46898;DHT22;32646;50.958;6.258;2023-05-17T06:52:11;11.00;99.90
46898;DHT22;32646;50.958;6.258;2023-05-17T06:54:38;11.10;99.90
46898;DHT22;32646;50.958;6.258;2023-05-17T06:57:05;11.30;99.90
46898;DHT22;32646;50.958;6.258;2023-05-17T06:59:31;11.10;99.90
46898;DHT22;32646;50.958;6.258;2023-05-17T07:01:58;11.30;99.90
46898;DHT22;32646;50.958;6.258;2023-05-17T07:04:25;11.20;99.90
46898;DHT22;32646;50.958;6.258;2023-05-17T07:06:52;11.20;99.90
46898;DHT22;32646;50.958;6.258;2023-05-17T07:09:20;11.40;99.90
46898;DHT22;32646;50.958;6.258;2023-05-17T07:11:47;11.40;99.90
46898;DHT22;32646;50.958;6.258;2023-05-17T07:14:13;11.50;99.90
46898;DHT22;32646;50.958;6.258;2023-05-17T07:16:40;11.60;99.90
46898;DHT22;32646;50.958;6.258;2023-05-17T07:19:09;11.80;99.90
46898;DHT22;32646;50.958;6.258;2023-05-17T07:21:36;11.70;99.90
46898;DHT22;32646;50.958;6.258;2023-05-17T07:24:03;11.60;99.90
46898;DHT22;32646;50.958;6.258;2023-05-17T07:26:30;11.80;99.90
46898;DHT22;32646;50.958;6.258;2023-05-17T07:28:56;11.90;99.90
46898;DHT22;32646;50.958;6.258;2023-05-17T07:31:23;11.90;99.90
46898;DHT22;32646;50.958;6.258;2023-05-17T07:33:49;11.90;99.90
46898;DHT22;32646;50.958;6.258;2023-05-17T07:36:16;11.90;99.90
46898;DHT22;32646;50.958;6.258;2023-05-17T07:38:43;12.10;99.90
46898;DHT22;32646;50.958;6.258;2023-05-17T07:41:09;12.10;99.90
46898;DHT22;32646;50.958;6.258;2023-05-17T07:43:36;12.00;99.90
46898;DHT22;32646;50.958;6.258;2023-05-17T07:46:03;12.20;99.90
46898;DHT22;32646;50.958;6.258;2023-05-17T07:48:30;12.30;99.90
46898;DHT22;32646;50.958;6.258;2023-05-17T07:50:56;12.50;99.90
46898;DHT22;32646;50.958;6.258;2023-05-17T07:53:23;12.30;99.90
46898;DHT22;32646;50.958;6.258;2023-05-17T07:55:50;12.60;99.90
46898;DHT22;32646;50.958;6.258;2023-05-17T07:58:16;12.60;99.90
46898;DHT22;32646;50.958;6.258;2023-05-17T08:00:43;13.00;99.90
46898;DHT22;32646;50.958;6.258;2023-05-17T08:03:09;13.60;99.90
46898;DHT22;32646;50.958;6.258;2023-05-17T08:05:36;13.80;99.90
46898;DHT22;32646;50.958;6.258;2023-05-17T08:08:03;13.70;95.20
46898;DHT22;32646;50.958;6.258;2023-05-17T08:10:29;13.40;96.00
46898;DHT22;32646;50.958;6.258;2023-05-17T08:12:56;12.90;98.10
46898;DHT22;32646;50.958;6.258;2023-05-17T08:15:23;13.30;99.90
46898;DHT22;32646;50.958;6.258;2023-05-17T08:17:49;14.80;94.80
46898;DHT22;32646;50.958;6.258;2023-05-17T08:20:16;16.20;84.20
46898;DHT22;32646;50.958;6.258;2023-05-17T08:22:43;16.70;75.30
46898;DHT22;32646;50.958;6.258;2023-05-17T08:25:10;16.10;75.40
46898;DHT22;32646;50.958;6.258;2023-05-17T08:27:37;14.80;80.60
46898;DHT22;32646;50.958;6.258;2023-05-17T08:30:04;14.20;88.50
46898;DHT22;32646;50.958;6.258;2023-05-17T08:32:37;13.80;90.00
46898;DHT22;32646;50.958;6.258;2023-05-17T08:35:06;14.50;85.90
46898;DHT22;32646;50.958;6.258;2023-05-17T08:37:33;15.50;79.50
46898;DHT22;32646;50.958;6.258;2023-05-17T08:40:00;15.90;76.20
46898;DHT22;32646;50.958;6.258;2023-05-17T08:42:27;16.60;64.50
46898;DHT22;32646;50.958;6.258;2023-05-17T08:44:55;16.40;67.00
46898;DHT22;32646;50.958;6.258;2023-05-17T08:47:22;16.80;70.50
46898;DHT22;32646;50.958;6.258;2023-05-17T08:49:50;16.70;68.10
46898;DHT22;32646;50.958;6.258;2023-05-17T08:52:17;16.30;65.20
46898;DHT22;32646;50.958;6.258;2023-05-17T08:54:44;15.90;69.70
46898;DHT22;32646;50.958;6.258;2023-05-17T08:57:11;15.30;74.80
46898;DHT22;32646;50.958;6.258;2023-05-17T08:59:38;14.60;73.10
46898;DHT22;32646;50.958;6.258;2023-05-17T09:02:05;14.10;71.80
46898;DHT22;32646;50.958;6.258;2023-05-17T09:04:32;13.60;74.20
46898;DHT22;32646;50.958;6.258;2023-05-17T09:06:59;14.00;82.90
46898;DHT22;32646;50.958;6.258;2023-05-17T09:09:27;13.80;88.30
46898;DHT22;32646;50.958;6.258;2023-05-17T09:11:54;13.80;86.40
46898;DHT22;32646;50.958;6.258;2023-05-17T09:14:20;13.60;89.40
46898;DHT22;32646;50.958;6.258;2023-05-17T09:16:55;15.40;93.00
46898;DHT22;32646;50.958;6.258;2023-05-17T09:19:22;15.80;68.70
46898;DHT22;32646;50.958;6.258;2023-05-17T09:21:48;15.60;72.90
46898;DHT22;32646;50.958;6.258;2023-05-17T09:24:18;16.10;72.00
46898;DHT22;32646;50.958;6.258;2023-05-17T09:26:44;16.00;68.10
46898;DHT22;32646;50.958;6.258;2023-05-17T09:29:14;16.40;65.60
46898;DHT22;32646;50.958;6.258;2023-05-17T09:31:42;16.90;62.70
46898;DHT22;32646;50.958;6.258;2023-05-17T09:34:09;17.50;60.40
46898;DHT22;32646;50.958;6.258;2023-05-17T09:36:37;17.70;64.60
46898;DHT22;32646;50.958;6.258;2023-05-17T09:39:05;18.10;58.50
46898;DHT22;32646;50.958;6.258;2023-05-17T09:41:39;18.10;63.80
46898;DHT22;32646;50.958;6.258;2023-05-17T09:44:10;18.10;61.20
46898;DHT22;32646;50.958;6.258;2023-05-17T09:46:41;17.50;59.30
46898;DHT22;32646;50.958;6.258;2023-05-17T09:49:09;17.30;58.40
46898;DHT22;32646;50.958;6.258;2023-05-17T09:51:39;17.00;58.60
46898;DHT22;32646;50.958;6.258;2023-05-17T09:54:06;17.00;59.10
46898;DHT22;32646;50.958;6.258;2023-05-17T09:56:34;17.90;58.60
46898;DHT22;32646;50.958;6.258;2023-05-17T09:59:02;18.60;54.70
46898;DHT22;32646;50.958;6.258;2023-05-17T10:01:30;19.30;57.70
46898;DHT22;32646;50.958;6.258;2023-05-17T10:04:00;18.90;55.10
46898;DHT22;32646;50.958;6.258;2023-05-17T10:06:28;19.30;51.60
46898;DHT22;32646;50.958;6.258;2023-05-17T10:09:16;19.30;52.90
46898;DHT22;32646;50.958;6.258;2023-05-17T10:11:45;19.30;54.10
46898;DHT22;32646;50.958;6.258;2023-05-17T10:14:17;19.50;50.60
46898;DHT22;32646;50.958;6.258;2023-05-17T10:16:44;20.50;48.70
46898;DHT22;32646;50.958;6.258;2023-05-17T10:19:11;20.30;47.50
46898;DHT22;32646;50.958;6.258;2023-05-17T10:21:40;20.10;49.60
46898;DHT22;32646;50.958;6.258;2023-05-17T10:24:06;19.90;48.40
46898;DHT22;32646;50.958;6.258;2023-05-17T10:26:34;19.70;51.60
46898;DHT22;32646;50.958;6.258;2023-05-17T10:29:02;19.30;53.30
46898;DHT22;32646;50.958;6.258;2023-05-17T10:31:30;19.70;55.80
46898;DHT22;32646;50.958;6.258;2023-05-17T10:33:58;20.40;51.50
46898;DHT22;32646;50.958;6.258;2023-05-17T10:36:32;20.80;49.60
46898;DHT22;32646;50.958;6.258;2023-05-17T10:39:00;21.00;55.00
46898;DHT22;32646;50.958;6.258;2023-05-17T10:41:32;20.30;45.40
46898;DHT22;32646;50.958;6.258;2023-05-17T10:44:01;20.30;48.70
46898;DHT22;32646;50.958;6.258;2023-05-17T10:46:29;20.20;52.00
46898;DHT22;32646;50.958;6.258;2023-05-17T10:48:57;19.70;48.30
46898;DHT22;32646;50.958;6.258;2023-05-17T10:51:28;19.90;48.00
46898;DHT22;32646;50.958;6.258;2023-05-17T10:56:31;20.50;49.90
46898;DHT22;32646;50.958;6.258;2023-05-17T10:59:23;19.00;45.40
46898;DHT22;32646;50.958;6.258;2023-05-17T11:09:45;19.60;50.60
46898;DHT22;32646;50.958;6.258;2023-05-17T11:12:15;19.90;52.70
46898;DHT22;32646;50.958;6.258;2023-05-17T11:14:50;19.20;48.60
46898;DHT22;32646;50.958;6.258;2023-05-17T11:17:19;18.10;52.80
46898;DHT22;32646;50.958;6.258;2023-05-17T11:19:55;18.90;51.50
46898;DHT22;32646;50.958;6.258;2023-05-17T11:22:23;19.40;47.10
46898;DHT22;32646;50.958;6.258;2023-05-17T11:24:55;19.50;52.30
46898;DHT22;32646;50.958;6.258;2023-05-17T11:27:23;18.90;50.40
46898;DHT22;32646;50.958;6.258;2023-05-17T11:29:49;19.00;50.10
46898;DHT22;32646;50.958;6.258;2023-05-17T11:32:17;19.10;53.20
46898;DHT22;32646;50.958;6.258;2023-05-17T11:34:51;18.90;51.10
46898;DHT22;32646;50.958;6.258;2023-05-17T11:37:25;18.00;55.10
46898;DHT22;32646;50.958;6.258;2023-05-17T11:40:03;17.70;56.40
46898;DHT22;32646;50.958;6.258;2023-05-17T11:42:31;17.30;56.60
46898;DHT22;32646;50.958;6.258;2023-05-17T11:45:00;16.80;56.70
46898;DHT22;32646;50.958;6.258;2023-05-17T11:47:27;17.20;58.10
46898;DHT22;32646;50.958;6.258;2023-05-17T11:49:55;18.60;56.50
46898;DHT22;32646;50.958;6.258;2023-05-17T11:52:27;18.70;51.30
46898;DHT22;32646;50.958;6.258;2023-05-17T11:54:56;17.80;54.00
46898;DHT22;32646;50.958;6.258;2023-05-17T11:57:29;18.00;56.90
46898;DHT22;32646;50.958;6.258;2023-05-17T12:00:00;17.40;52.70
46898;DHT22;32646;50.958;6.258;2023-05-17T12:02:31;18.20;53.70
46898;DHT22;32646;50.958;6.258;2023-05-17T12:04:58;18.20;51.10
46898;DHT22;32646;50.958;6.258;2023-05-17T12:07:25;19.10;56.10
46898;DHT22;32646;50.958;6.258;2023-05-17T12:09:53;19.70;56.50
46898;DHT22;32646;50.958;6.258;2023-05-17T12:12:20;20.30;52.80
46898;DHT22;32646;50.958;6.258;2023-05-17T12:14:47;19.80;51.90
46898;DHT22;32646;50.958;6.258;2023-05-17T12:17:25;19.50;49.40
46898;DHT22;32646;50.958;6.258;2023-05-17T12:19:54;19.50;50.90
46898;DHT22;32646;50.958;6.258;2023-05-17T12:22:21;19.90;55.80
46898;DHT22;32646;50.958;6.258;2023-05-17T12:24:47;20.20;46.30
46898;DHT22;32646;50.958;6.258;2023-05-17T12:27:23;20.20;49.20
46898;DHT22;32646;50.958;6.258;2023-05-17T12:29:50;19.80;49.90
46898;DHT22;32646;50.958;6.258;2023-05-17T12:32:17;18.80;49.40
46898;DHT22;32646;50.958;6.258;2023-05-17T12:34:44;17.80;53.10
46898;DHT22;32646;50.958;6.258;2023-05-17T12:37:11;17.40;55.30
46898;DHT22;32646;50.958;6.258;2023-05-17T12:39:38;17.10;55.10
46898;DHT22;32646;50.958;6.258;2023-05-17T12:42:06;17.10;55.90
46898;DHT22;32646;50.958;6.258;2023-05-17T12:44:33;18.50;56.70
46898;DHT22;32646;50.958;6.258;2023-05-17T12:47:02;19.20;51.80
46898;DHT22;32646;50.958;6.258;2023-05-17T12:49:29;20.50;45.70
46898;DHT22;32646;50.958;6.258;2023-05-17T12:52:02;19.70;48.30
46898;DHT22;32646;50.958;6.258;2023-05-17T12:54:29;19.30;47.70
46898;DHT22;32646;50.958;6.258;2023-05-17T12:56:56;18.50;47.90
46898;DHT22;32646;50.958;6.258;2023-05-17T12:59:23;17.90;50.00
46898;DHT22;32646;50.958;6.258;2023-05-17T13:01:56;17.40;51.50
46898;DHT22;32646;50.958;6.258;2023-05-17T13:04:31;17.40;53.40
46898;DHT22;32646;50.958;6.258;2023-05-17T13:07:01;17.80;51.80
46898;DHT22;32646;50.958;6.258;2023-05-17T13:09:29;18.80;55.80
46898;DHT22;32646;50.958;6.258;2023-05-17T13:12:06;20.00;51.40
46898;DHT22;32646;50.958;6.258;2023-05-17T13:14:43;20.40;54.60
46898;DHT22;32646;50.958;6.258;2023-05-17T13:17:23;19.40;45.80
46898;DHT22;32646;50.958;6.258;2023-05-17T13:19:50;18.60;49.60
46898;DHT22;32646;50.958;6.258;2023-05-17T13:22:17;18.50;47.70
46898;DHT22;32646;50.958;6.258;2023-05-17T13:24:44;19.50;48.70
46898;DHT22;32646;50.958;6.258;2023-05-17T13:27:11;20.10;46.00
46898;DHT22;32646;50.958;6.258;2023-05-17T13:29:40;21.20;47.10
46898;DHT22;32646;50.958;6.258;2023-05-17T13:32:10;20.30;43.00
46898;DHT22;32646;50.958;6.258;2023-05-17T13:34:37;19.20;45.00
46898;DHT22;32646;50.958;6.258;2023-05-17T13:37:04;19.10;47.50
46898;DHT22;32646;50.958;6.258;2023-05-17T13:39:33;19.80;50.40
46898;DHT22;32646;50.958;6.258;2023-05-17T13:41:59;20.60;48.10
46898;DHT22;32646;50.958;6.258;2023-05-17T13:44:27;21.10;44.50
46898;DHT22;32646;50.958;6.258;2023-05-17T13:46:53;21.30;48.10
46898;DHT22;32646;50.958;6.258;2023-05-17T13:49:20;21.90;46.60
46898;DHT22;32646;50.958;6.258;2023-05-17T13:51:47;22.00;47.20
46898;DHT22;32646;50.958;6.258;2023-05-17T13:54:14;21.50;46.10
46898;DHT22;32646;50.958;6.258;2023-05-17T13:56:40;21.80;41.00
46898;DHT22;32646;50.958;6.258;2023-05-17T13:59:07;20.20;41.70
46898;DHT22;32646;50.958;6.258;2023-05-17T14:01:33;19.40;44.70
46898;DHT22;32646;50.958;6.258;2023-05-17T14:04:00;19.00;44.60
46898;DHT22;32646;50.958;6.258;2023-05-17T14:06:27;19.90;46.00
46898;DHT22;32646;50.958;6.258;2023-05-17T14:08:54;20.20;44.30
46898;DHT22;32646;50.958;6.258;2023-05-17T14:11:20;20.60;44.20
46898;DHT22;32646;50.958;6.258;2023-05-17T14:13:47;20.20;42.50
46898;DHT22;32646;50.958;6.258;2023-05-17T14:16:14;20.20;45.20
46898;DHT22;32646;50.958;6.258;2023-05-17T14:18:40;20.70;42.20
46898;DHT22;32646;50.958;6.258;2023-05-17T14:21:07;20.60;42.10
46898;DHT22;32646;50.958;6.258;2023-05-17T14:23:34;20.10;44.40
46898;DHT22;32646;50.958;6.258;2023-05-17T14:26:00;20.20;44.40
46898;DHT22;32646;50.958;6.258;2023-05-17T14:28:27;20.30;47.70
46898;DHT22;32646;50.958;6.258;2023-05-17T14:30:53;20.10;42.80
46898;DHT22;32646;50.958;6.258;2023-05-17T14:33:20;20.50;44.80
46898;DHT22;32646;50.958;6.258;2023-05-17T14:35:47;20.20;43.60
46898;DHT22;32646;50.958;6.258;2023-05-17T14:38:13;19.50;46.80
46898;DHT22;32646;50.958;6.258;2023-05-17T14:40:40;19.30;45.20
46898;DHT22;32646;50.958;6.258;2023-05-17T14:43:06;19.00;46.00
46898;DHT22;32646;50.958;6.258;2023-05-17T14:45:33;19.30;47.10
46898;DHT22;32646;50.958;6.258;2023-05-17T14:48:00;19.60;43.30
46898;DHT22;32646;50.958;6.258;2023-05-17T14:50:26;18.50;47.30
46898;DHT22;32646;50.958;6.258;2023-05-17T14:52:53;18.80;46.60
46898;DHT22;32646;50.958;6.258;2023-05-17T14:55:20;18.70;48.30
46898;DHT22;32646;50.958;6.258;2023-05-17T14:57:46;18.80;46.80
46898;DHT22;32646;50.958;6.258;2023-05-17T15:00:13;18.70;50.10
46898;DHT22;32646;50.958;6.258;2023-05-17T15:02:40;18.80;44.60
46898;DHT22;32646;50.958;6.258;2023-05-17T15:05:06;19.20;44.20
46898;DHT22;32646;50.958;6.258;2023-05-17T15:07:33;18.80;49.10
46898;DHT22;32646;50.958;6.258;2023-05-17T15:10:00;19.10;48.70
46898;DHT22;32646;50.958;6.258;2023-05-17T15:12:26;19.10;44.50
46898;DHT22;32646;50.958;6.258;2023-05-17T15:14:53;19.30;45.80
46898;DHT22;32646;50.958;6.258;2023-05-17T15:17:19;19.20;46.40
46898;DHT22;32646;50.958;6.258;2023-05-17T15:19:46;19.00;47.90
46898;DHT22;32646;50.958;6.258;2023-05-17T15:22:13;19.20;45.70
46898;DHT22;32646;50.958;6.258;2023-05-17T15:24:40;19.00;46.20
46898;DHT22;32646;50.958;6.258;2023-05-17T15:27:06;18.70;47.00
46898;DHT22;32646;50.958;6.258;2023-05-17T15:29:33;18.50;50.00
46898;DHT22;32646;50.958;6.258;2023-05-17T15:31:59;18.40;46.70
46898;DHT22;32646;50.958;6.258;2023-05-17T15:34:26;18.30;46.70
46898;DHT22;32646;50.958;6.258;2023-05-17T15:36:54;18.30;46.20
46898;DHT22;32646;50.958;6.258;2023-05-17T15:39:21;18.40;47.20
46898;DHT22;32646;50.958;6.258;2023-05-17T15:41:47;18.30;49.30
46898;DHT22;32646;50.958;6.258;2023-05-17T15:44:14;18.10;48.40
46898;DHT22;32646;50.958;6.258;2023-05-17T15:46:41;18.50;48.60
46898;DHT22;32646;50.958;6.258;2023-05-17T15:49:08;18.20;44.70
46898;DHT22;32646;50.958;6.258;2023-05-17T15:51:34;18.20;45.90
46898;DHT22;32646;50.958;6.258;2023-05-17T15:54:01;18.40;46.30
46898;DHT22;32646;50.958;6.258;2023-05-17T15:56:28;18.20;47.20
46898;DHT22;32646;50.958;6.258;2023-05-17T15:58:54;18.30;47.10
46898;DHT22;32646;50.958;6.258;2023-05-17T16:01:21;18.30;47.20